Time;durP1;ratioP1;P1;durP2;ratioP2;P2;SDS_P1;SDS_P2;PMS_P1;PMS_P2;Temp;Humidity;BMP_temperature;BMP_pressure;BME280_temperature;BME280_humidity;BME280_pressure;Samples;Min_cycle;Max_cycle;Signal;HPM_P1;HPM_P2
2020/12/16 00:00:30;;;;;;;;;;;7.00;99.90;;;;;;5031553;28;20364;-82
2020/12/16 00:03:14;;;;;;;;;;;6.90;99.90;;;;;;5034345;28;19960;-83
2020/12/16 00:05:48;;;;;;;;;;;7.30;99.90;;;;;;5032428;28;20062;-82
2020/12/16 00:08:35;;;;;;;;;;;6.90;99.90;;;;;;5025807;28;19925;-82
2020/12/16 00:20:27;;;;;;;;;;;7.10;99.90;;;;;;5040643;28;19989;-83
2020/12/16 00:25:57;;;;;;;;;;;7.40;99.90;;;;;;5040060;28;19924;-80
2020/12/16 00:28:23;;;;;;;;;;;7.00;99.90;;;;;;5024936;28;19925;-79
2020/12/16 00:30:50;;;;;;;;;;;7.10;99.90;;;;;;5025023;28;19926;-81
2020/12/16 00:33:16;;;;;;;;;;;7.10;99.90;;;;;;5022466;28;19939;-82
2020/12/16 00:35:44;;;;;;;;;;;7.10;99.90;;;;;;5023273;28;19925;-81
2020/12/16 00:38:10;;;;;;;;;;;7.00;99.90;;;;;;5023546;28;19992;-81
2020/12/16 00:40:40;;;;;;;;;;;7.10;99.90;;;;;;5018812;28;19926;-80
2020/12/16 00:43:07;;;;;;;;;;;7.10;99.90;;;;;;5034350;28;19925;-81
2020/12/16 00:45:35;;;;;;;;;;;7.10;99.90;;;;;;5033250;28;19936;-81
2020/12/16 00:48:05;;;;;;;;;;;7.10;99.90;;;;;;5032411;28;19932;-82
2020/12/16 00:50:34;;;;;;;;;;;7.10;99.90;;;;;;5023897;28;19937;-82
2020/12/16 00:53:02;;;;;;;;;;;7.50;99.90;;;;;;5025963;28;20404;-82
2020/12/16 00:55:30;;;;;;;;;;;7.10;99.90;;;;;;5019099;28;19925;-80
2020/12/16 00:57:58;;;;;;;;;;;7.10;99.90;;;;;;5019125;28;19949;-82
2020/12/16 01:00:24;;;;;;;;;;;7.10;99.90;;;;;;5017995;28;19982;-82
2020/12/16 01:02:54;;;;;;;;;;;7.10;99.90;;;;;;5020050;28;19935;-82
2020/12/16 01:05:48;;;;;;;;;;;7.20;99.90;;;;;;5020320;28;19936;-82
2020/12/16 01:08:15;;;;;;;;;;;7.20;99.90;;;;;;5026394;28;19929;-82
2020/12/16 01:10:42;;;;;;;;;;;7.20;99.90;;;;;;5018950;28;19926;-81
2020/12/16 01:13:08;;;;;;;;;;;7.20;99.90;;;;;;5018601;28;19932;-82
2020/12/16 01:15:35;;;;;;;;;;;7.20;99.90;;;;;;5018665;28;20468;-82
2020/12/16 01:18:01;;;;;;;;;;;7.20;99.90;;;;;;5017991;28;19926;-82
2020/12/16 01:20:27;;;;;;;;;;;7.30;99.90;;;;;;5017439;28;20282;-82
2020/12/16 01:22:54;;;;;;;;;;;7.30;99.90;;;;;;5016502;28;19936;-81
2020/12/16 01:25:21;;;;;;;;;;;7.20;99.90;;;;;;5016366;28;19933;-81
2020/12/16 01:27:51;;;;;;;;;;;7.20;99.90;;;;;;5016809;28;19956;-81
2020/12/16 01:30:17;;;;;;;;;;;7.20;99.90;;;;;;5017135;28;19926;-81
2020/12/16 01:32:43;;;;;;;;;;;7.20;99.90;;;;;;5016299;28;19925;-81
2020/12/16 01:35:10;;;;;;;;;;;7.30;99.90;;;;;;5018681;28;19936;-81
2020/12/16 01:37:36;;;;;;;;;;;7.30;99.90;;;;;;5016997;28;19941;-81
2020/12/16 01:40:03;;;;;;;;;;;7.50;99.90;;;;;;5016580;28;19933;-82
2020/12/16 01:42:30;;;;;;;;;;;7.30;99.90;;;;;;5016276;28;20322;-81
2020/12/16 01:44:56;;;;;;;;;;;7.30;99.90;;;;;;5015611;28;19930;-82
2020/12/16 01:47:23;;;;;;;;;;;7.30;99.90;;;;;;5015874;28;19952;-81
2020/12/16 01:49:49;;;;;;;;;;;7.30;99.90;;;;;;5015714;28;19925;-82
2020/12/16 01:52:16;;;;;;;;;;;7.30;99.90;;;;;;5015329;28;19949;-82
2020/12/16 01:54:42;;;;;;;;;;;7.40;99.90;;;;;;5015789;28;19926;-81
2020/12/16 01:57:08;;;;;;;;;;;7.40;99.90;;;;;;5015533;28;19936;-83
2020/12/16 01:59:36;;;;;;;;;;;7.40;99.90;;;;;;5015277;28;19933;-82
2020/12/16 02:02:03;;;;;;;;;;;7.40;99.90;;;;;;5015688;28;19925;-83
2020/12/16 02:04:30;;;;;;;;;;;7.40;99.90;;;;;;5016195;28;19925;-83
2020/12/16 02:06:56;;;;;;;;;;;7.50;99.90;;;;;;5015443;28;20036;-82
2020/12/16 02:09:23;;;;;;;;;;;7.50;99.90;;;;;;5015140;28;19926;-82
2020/12/16 02:11:50;;;;;;;;;;;7.50;99.90;;;;;;5016308;28;19925;-82
2020/12/16 02:14:16;;;;;;;;;;;7.40;99.90;;;;;;5019222;28;19933;-83
2020/12/16 02:16:43;;;;;;;;;;;7.40;99.90;;;;;;5019318;28;19960;-82
2020/12/16 02:19:10;;;;;;;;;;;7.70;99.90;;;;;;5019193;28;19925;-84
2020/12/16 02:21:36;;;;;;;;;;;7.40;99.90;;;;;;5019345;28;19926;-82
2020/12/16 02:24:03;;;;;;;;;;;7.50;99.90;;;;;;5019135;28;19936;-83
2020/12/16 02:26:31;;;;;;;;;;;7.50;99.90;;;;;;5018991;28;19935;-83
2020/12/16 02:28:57;;;;;;;;;;;7.50;99.90;;;;;;5019254;28;19933;-82
2020/12/16 02:31:23;;;;;;;;;;;7.50;99.90;;;;;;5018921;28;20338;-81
2020/12/16 02:33:50;;;;;;;;;;;7.50;99.90;;;;;;5019036;28;19992;-81
2020/12/16 02:36:16;;;;;;;;;;;7.50;99.90;;;;;;5018873;28;19937;-82
2020/12/16 02:38:45;;;;;;;;;;;7.50;99.90;;;;;;5018962;28;19932;-83
2020/12/16 02:41:12;;;;;;;;;;;7.60;99.90;;;;;;5018688;28;19925;-81
2020/12/16 02:43:39;;;;;;;;;;;7.60;99.90;;;;;;5019101;28;19937;-81
2020/12/16 02:46:05;;;;;;;;;;;7.70;99.90;;;;;;5018839;28;19941;-82
2020/12/16 02:48:31;;;;;;;;;;;7.70;99.90;;;;;;5018345;28;19926;-81
2020/12/16 02:50:58;;;;;;;;;;;7.70;99.90;;;;;;5018844;28;20350;-82
2020/12/16 02:53:24;;;;;;;;;;;7.70;99.90;;;;;;5018582;28;19925;-82
2020/12/16 02:55:50;;;;;;;;;;;7.70;99.90;;;;;;5018453;28;19933;-82
2020/12/16 02:58:16;;;;;;;;;;;7.70;99.90;;;;;;5018752;28;19991;-83
2020/12/16 03:00:44;;;;;;;;;;;7.70;99.90;;;;;;5018094;28;19932;-83
2020/12/16 03:03:10;;;;;;;;;;;7.70;99.90;;;;;;5018463;28;19925;-83
2020/12/16 03:05:36;;;;;;;;;;;7.70;99.90;;;;;;5017807;28;20266;-82
2020/12/16 03:08:06;;;;;;;;;;;7.70;99.90;;;;;;5018098;28;19932;-83
2020/12/16 03:10:32;;;;;;;;;;;7.70;99.90;;;;;;5018069;28;19933;-83
2020/12/16 03:12:58;;;;;;;;;;;7.70;99.90;;;;;;5018125;28;19926;-83
2020/12/16 03:15:24;;;;;;;;;;;7.70;99.90;;;;;;5018125;28;19925;-84
2020/12/16 03:17:52;;;;;;;;;;;7.70;99.90;;;;;;5018197;28;19933;-81
2020/12/16 03:20:18;;;;;;;;;;;7.70;99.90;;;;;;5018056;28;19933;-82
2020/12/16 03:22:44;;;;;;;;;;;7.70;99.90;;;;;;5017520;28;19926;-84
2020/12/16 03:25:10;;;;;;;;;;;7.70;99.90;;;;;;5017330;28;19926;-81
2020/12/16 03:27:37;;;;;;;;;;;7.70;99.90;;;;;;5017787;28;20351;-84
2020/12/16 03:30:04;;;;;;;;;;;7.70;99.90;;;;;;5017578;28;19929;-83
2020/12/16 03:32:30;;;;;;;;;;;7.70;99.90;;;;;;5017945;28;19933;-83
2020/12/16 03:34:57;;;;;;;;;;;7.70;99.90;;;;;;5017678;28;19925;-84
2020/12/16 03:37:24;;;;;;;;;;;7.70;99.90;;;;;;5017649;28;20313;-83
2020/12/16 03:39:50;;;;;;;;;;;7.70;99.90;;;;;;5017572;28;19925;-86
2020/12/16 03:42:16;;;;;;;;;;;7.70;99.90;;;;;;5017543;28;20261;-84
2020/12/16 03:44:42;;;;;;;;;;;7.70;99.90;;;;;;5017595;28;19926;-84
2020/12/16 03:47:09;;;;;;;;;;;7.80;99.90;;;;;;5017693;28;19945;-84
2020/12/16 03:49:35;;;;;;;;;;;7.80;99.90;;;;;;5017317;28;19929;-85
2020/12/16 03:52:02;;;;;;;;;;;7.80;99.90;;;;;;5017361;28;19933;-84
2020/12/16 03:54:29;;;;;;;;;;;7.80;99.90;;;;;;5017364;28;19926;-84
2020/12/16 03:56:56;;;;;;;;;;;7.80;99.90;;;;;;5017290;28;19925;-84
2020/12/16 03:59:22;;;;;;;;;;;7.80;99.90;;;;;;5017155;28;20365;-84
2020/12/16 04:01:49;;;;;;;;;;;7.80;99.90;;;;;;5017352;28;19999;-84
2020/12/16 04:04:15;;;;;;;;;;;7.90;99.90;;;;;;5016970;28;19934;-84
2020/12/16 04:06:41;;;;;;;;;;;7.90;99.90;;;;;;5017222;28;19925;-85
2020/12/16 04:09:09;;;;;;;;;;;7.90;99.90;;;;;;5016934;28;19925;-83
2020/12/16 04:11:35;;;;;;;;;;;7.90;99.90;;;;;;5016979;28;19932;-86
2020/12/16 04:14:01;;;;;;;;;;;7.80;99.90;;;;;;5017152;28;19926;-84
2020/12/16 04:16:27;;;;;;;;;;;7.90;99.90;;;;;;5016952;28;19933;-85
2020/12/16 04:18:54;;;;;;;;;;;7.90;99.90;;;;;;5016905;28;19925;-86
2020/12/16 04:21:20;;;;;;;;;;;7.90;99.90;;;;;;5016874;28;19926;-84
2020/12/16 04:23:46;;;;;;;;;;;7.90;99.90;;;;;;5016817;28;20312;-83
2020/12/16 04:26:13;;;;;;;;;;;7.90;99.90;;;;;;5017073;28;19930;-82
2020/12/16 04:28:40;;;;;;;;;;;7.90;99.90;;;;;;5016792;28;19925;-81
2020/12/16 04:31:06;;;;;;;;;;;7.90;99.90;;;;;;5016582;28;20247;-81
2020/12/16 04:33:33;;;;;;;;;;;7.80;99.90;;;;;;5016935;28;19933;-82
2020/12/16 04:35:59;;;;;;;;;;;7.90;99.90;;;;;;5016627;28;19995;-82
2020/12/16 04:38:25;;;;;;;;;;;7.90;99.90;;;;;;5016724;28;19957;-83
2020/12/16 04:40:52;;;;;;;;;;;7.90;99.90;;;;;;5016821;28;19925;-83
2020/12/16 04:43:19;;;;;;;;;;;7.80;99.90;;;;;;5016447;28;19937;-83
2020/12/16 04:45:45;;;;;;;;;;;7.90;99.90;;;;;;5016367;28;19999;-82
2020/12/16 04:48:12;;;;;;;;;;;7.80;99.90;;;;;;5016246;28;19944;-80
2020/12/16 04:50:38;;;;;;;;;;;7.80;99.90;;;;;;5016261;28;19925;-81
2020/12/16 04:53:06;;;;;;;;;;;7.90;99.90;;;;;;5016197;28;20366;-82
2020/12/16 04:55:32;;;;;;;;;;;7.90;99.90;;;;;;5016145;28;20338;-81
2020/12/16 04:58:00;;;;;;;;;;;8.00;99.90;;;;;;5016401;28;19936;-81
2020/12/16 05:00:27;;;;;;;;;;;7.90;99.90;;;;;;5015881;28;19936;-82
2020/12/16 05:02:54;;;;;;;;;;;8.00;99.90;;;;;;5016227;28;19925;-81
2020/12/16 05:05:20;;;;;;;;;;;8.00;99.90;;;;;;5015803;28;19925;-82
2020/12/16 05:07:48;;;;;;;;;;;8.00;99.90;;;;;;5015923;28;19936;-80
2020/12/16 05:10:15;;;;;;;;;;;7.90;99.90;;;;;;5015863;28;19936;-80
2020/12/16 05:12:42;;;;;;;;;;;8.00;99.90;;;;;;5016033;28;19935;-81
2020/12/16 05:15:21;;;;;;;;;;;8.00;99.90;;;;;;5015873;28;19964;-81
2020/12/16 05:17:49;;;;;;;;;;;8.00;99.90;;;;;;5015649;28;19936;-80
2020/12/16 05:20:15;;;;;;;;;;;8.00;99.90;;;;;;5015746;28;19929;-82
2020/12/16 05:22:41;;;;;;;;;;;8.00;99.90;;;;;;5015894;28;19987;-80
2020/12/16 05:25:07;;;;;;;;;;;8.00;99.90;;;;;;5015604;28;20274;-83
2020/12/16 05:27:34;;;;;;;;;;;8.00;99.90;;;;;;5015587;28;19936;-83
2020/12/16 05:30:00;;;;;;;;;;;8.10;99.90;;;;;;5015495;28;19929;-80
2020/12/16 05:32:27;;;;;;;;;;;8.10;99.90;;;;;;5015608;28;19937;-84
2020/12/16 05:34:55;;;;;;;;;;;8.10;99.90;;;;;;5015830;28;19975;-81
2020/12/16 05:37:28;;;;;;;;;;;8.20;99.90;;;;;;5015784;28;19926;-81
2020/12/16 05:39:55;;;;;;;;;;;8.20;99.90;;;;;;5015713;28;19937;-82
2020/12/16 05:42:23;;;;;;;;;;;8.20;99.90;;;;;;5015495;28;19925;-83
2020/12/16 05:44:49;;;;;;;;;;;8.20;99.90;;;;;;5015480;28;19937;-83
2020/12/16 05:47:15;;;;;;;;;;;8.20;99.90;;;;;;5014787;28;19933;-80
2020/12/16 05:49:42;;;;;;;;;;;5.70;99.90;;;;;;5015556;28;20301;-82
2020/12/16 05:52:09;;;;;;;;;;;8.20;99.90;;;;;;5015464;28;19936;-81
2020/12/16 05:54:36;;;;;;;;;;;8.20;99.90;;;;;;5015215;28;19929;-82
2020/12/16 05:57:09;;;;;;;;;;;8.30;99.90;;;;;;5015381;28;19925;-84
2020/12/16 05:59:35;;;;;;;;;;;8.30;99.90;;;;;;5015133;28;19929;-82
2020/12/16 06:02:01;;;;;;;;;;;8.30;99.90;;;;;;5015295;28;19926;-83
2020/12/16 06:04:28;;;;;;;;;;;8.30;99.90;;;;;;5015163;28;19926;-82
2020/12/16 06:06:54;;;;;;;;;;;8.20;99.90;;;;;;5015459;28;19925;-81
2020/12/16 06:09:21;;;;;;;;;;;8.30;99.90;;;;;;5015215;28;19926;-83
2020/12/16 06:11:48;;;;;;;;;;;8.30;99.90;;;;;;5015386;28;19936;-84
2020/12/16 06:14:14;;;;;;;;;;;8.30;99.90;;;;;;5015218;28;19926;-83
2020/12/16 06:16:44;;;;;;;;;;;8.20;99.90;;;;;;5015139;28;19933;-83
2020/12/16 06:19:10;;;;;;;;;;;8.20;99.90;;;;;;5015124;28;19933;-84
2020/12/16 06:21:37;;;;;;;;;;;8.20;99.90;;;;;;5015305;28;19934;-84
2020/12/16 06:24:03;;;;;;;;;;;8.20;99.90;;;;;;5015385;28;20273;-83
2020/12/16 06:26:30;;;;;;;;;;;8.20;99.90;;;;;;5015251;28;19934;-83
2020/12/16 06:28:58;;;;;;;;;;;8.10;99.90;;;;;;5015077;28;19925;-84
2020/12/16 06:31:25;;;;;;;;;;;8.20;99.90;;;;;;5014854;28;19980;-84
2020/12/16 06:33:53;;;;;;;;;;;8.10;99.90;;;;;;5014962;28;20350;-82
2020/12/16 06:36:19;;;;;;;;;;;8.10;99.90;;;;;;5015173;28;19926;-84
2020/12/16 06:38:46;;;;;;;;;;;8.10;99.90;;;;;;5014917;28;19944;-82
2020/12/16 06:41:16;;;;;;;;;;;8.10;99.90;;;;;;5014969;28;19925;-82
2020/12/16 06:43:45;;;;;;;;;;;8.10;99.90;;;;;;5015110;28;19925;-79
2020/12/16 06:46:30;;;;;;;;;;;8.10;99.90;;;;;;5015557;28;19984;-79
2020/12/16 06:48:56;;;;;;;;;;;8.10;99.90;;;;;;5015310;28;19968;-79
2020/12/16 06:51:23;;;;;;;;;;;8.10;99.90;;;;;;5015534;28;19926;-79
2020/12/16 06:53:50;;;;;;;;;;;8.10;99.90;;;;;;5015078;28;19925;-79
2020/12/16 06:56:18;;;;;;;;;;;8.20;99.90;;;;;;5014748;28;19944;-79
2020/12/16 06:58:45;;;;;;;;;;;8.10;99.90;;;;;;5017312;28;19972;-79
2020/12/16 07:01:12;;;;;;;;;;;8.10;99.90;;;;;;5018597;28;19925;-80
2020/12/16 07:03:38;;;;;;;;;;;8.20;99.90;;;;;;5020259;28;19925;-80
2020/12/16 07:06:04;;;;;;;;;;;8.10;99.90;;;;;;5020079;28;19932;-80
2020/12/16 07:08:31;;;;;;;;;;;8.10;99.90;;;;;;5019455;28;19925;-81
2020/12/16 07:11:00;;;;;;;;;;;8.10;99.90;;;;;;5021541;28;19932;-81
2020/12/16 07:13:28;;;;;;;;;;;8.20;99.90;;;;;;5022355;28;20313;-80
2020/12/16 07:15:58;;;;;;;;;;;8.20;99.90;;;;;;5021340;28;20260;-80
2020/12/16 07:18:42;;;;;;;;;;;8.10;99.90;;;;;;5019848;28;19925;-80
2020/12/16 07:21:21;;;;;;;;;;;8.10;99.90;;;;;;5021076;28;19926;-80
2020/12/16 07:23:48;;;;;;;;;;;8.20;99.90;;;;;;5021367;28;19926;-80
2020/12/16 07:26:18;;;;;;;;;;;8.10;99.90;;;;;;5019952;28;20366;-81
2020/12/16 07:28:44;;;;;;;;;;;8.20;99.90;;;;;;5018433;28;19926;-80
2020/12/16 07:31:11;;;;;;;;;;;8.10;99.90;;;;;;5018645;28;19925;-81
2020/12/16 07:33:38;;;;;;;;;;;8.10;99.90;;;;;;5018484;28;19986;-80
2020/12/16 07:36:05;;;;;;;;;;;8.60;99.90;;;;;;5019246;28;20042;-81
2020/12/16 07:38:31;;;;;;;;;;;8.10;99.90;;;;;;5018388;28;19933;-81
2020/12/16 07:40:58;;;;;;;;;;;8.10;99.90;;;;;;5019238;28;19926;-80
2020/12/16 07:43:24;;;;;;;;;;;8.10;99.90;;;;;;5019633;28;19925;-80
2020/12/16 07:46:00;;;;;;;;;;;8.20;99.90;;;;;;5020305;28;19933;-80
2020/12/16 07:48:27;;;;;;;;;;;8.20;99.90;;;;;;5024459;28;19926;-80
2020/12/16 07:50:58;;;;;;;;;;;8.20;99.90;;;;;;5024738;28;19932;-79
2020/12/16 07:53:24;;;;;;;;;;;8.20;99.90;;;;;;5018565;28;19932;-79
2020/12/16 07:55:56;;;;;;;;;;;8.20;99.90;;;;;;5017746;28;19937;-79
2020/12/16 07:58:22;;;;;;;;;;;8.20;99.90;;;;;;5017701;28;20349;-79
2020/12/16 08:00:48;;;;;;;;;;;8.10;99.90;;;;;;5017505;28;19925;-79
2020/12/16 08:03:15;;;;;;;;;;;8.10;99.90;;;;;;5017471;28;19934;-80
2020/12/16 08:05:43;;;;;;;;;;;8.10;99.90;;;;;;5017160;28;20405;-80
2020/12/16 08:08:09;;;;;;;;;;;8.20;99.90;;;;;;5017425;28;19926;-79
2020/12/16 08:10:35;;;;;;;;;;;8.20;99.90;;;;;;5017095;28;19926;-79
2020/12/16 08:13:01;;;;;;;;;;;8.10;99.90;;;;;;5017266;28;19925;-79
2020/12/16 08:15:29;;;;;;;;;;;8.10;99.90;;;;;;5017107;28;20339;-79
2020/12/16 08:17:55;;;;;;;;;;;8.10;99.90;;;;;;5017106;28;20016;-79
2020/12/16 08:20:22;;;;;;;;;;;8.10;99.90;;;;;;5016932;28;19934;-79
2020/12/16 08:22:49;;;;;;;;;;;8.20;99.90;;;;;;5017148;28;19932;-79
2020/12/16 08:25:16;;;;;;;;;;;8.10;99.90;;;;;;5016894;28;19976;-78
2020/12/16 08:27:43;;;;;;;;;;;8.20;99.90;;;;;;5016967;28;20281;-79
2020/12/16 08:30:09;;;;;;;;;;;8.20;99.90;;;;;;5016694;28;19926;-79
2020/12/16 08:32:37;;;;;;;;;;;8.20;99.90;;;;;;5016739;28;20377;-79
2020/12/16 08:35:03;;;;;;;;;;;8.20;99.90;;;;;;5016903;28;19925;-79
2020/12/16 08:37:30;;;;;;;;;;;8.20;99.90;;;;;;5016831;28;19925;-79
2020/12/16 08:39:57;;;;;;;;;;;8.20;99.90;;;;;;5016578;28;20389;-79
2020/12/16 08:42:24;;;;;;;;;;;8.20;99.90;;;;;;5016618;28;20341;-78
2020/12/16 08:44:50;;;;;;;;;;;8.20;99.90;;;;;;5016685;28;19925;-79
2020/12/16 08:47:23;;;;;;;;;;;8.20;99.90;;;;;;5016969;28;19925;-78
2020/12/16 08:49:50;;;;;;;;;;;8.20;99.90;;;;;;5016527;28;19933;-79
2020/12/16 08:52:16;;;;;;;;;;;8.20;99.90;;;;;;5016485;28;20024;-79
2020/12/16 08:54:44;;;;;;;;;;;8.20;99.90;;;;;;5016373;28;19925;-79
2020/12/16 08:57:11;;;;;;;;;;;8.20;99.90;;;;;;5016697;28;19925;-79
2020/12/16 08:59:38;;;;;;;;;;;8.20;99.90;;;;;;5016039;28;19925;-78
2020/12/16 09:02:08;;;;;;;;;;;8.20;99.90;;;;;;5016159;28;20331;-79
2020/12/16 09:04:35;;;;;;;;;;;8.10;99.90;;;;;;5015926;28;20297;-78
2020/12/16 09:07:01;;;;;;;;;;;8.20;99.90;;;;;;5016155;28;20000;-78
2020/12/16 09:09:27;;;;;;;;;;;8.20;99.90;;;;;;5016065;28;19926;-78
2020/12/16 09:11:54;;;;;;;;;;;8.20;99.90;;;;;;5016077;28;19991;-78
2020/12/16 09:14:21;;;;;;;;;;;8.20;99.90;;;;;;5016202;28;19925;-78
2020/12/16 09:16:47;;;;;;;;;;;8.20;99.90;;;;;;5015957;28;20331;-79
2020/12/16 09:19:20;;;;;;;;;;;8.20;99.90;;;;;;5016118;28;19940;-79
2020/12/16 09:21:46;;;;;;;;;;;8.20;99.90;;;;;;5015033;28;20044;-78
2020/12/16 09:24:13;;;;;;;;;;;8.20;99.90;;;;;;5015811;28;19964;-78
2020/12/16 09:26:40;;;;;;;;;;;8.10;99.90;;;;;;5015844;28;19925;-78
2020/12/16 09:29:20;;;;;;;;;;;8.20;99.90;;;;;;5015609;28;19925;-78
2020/12/16 09:31:47;;;;;;;;;;;8.20;99.90;;;;;;4996402;28;19999;-78
2020/12/16 09:34:13;;;;;;;;;;;8.20;99.90;;;;;;4996082;28;19933;-78
2020/12/16 09:36:40;;;;;;;;;;;8.20;99.90;;;;;;5010669;28;20231;-78
2020/12/16 09:39:06;;;;;;;;;;;8.30;99.90;;;;;;5015572;28;19937;-78
2020/12/16 09:41:42;;;;;;;;;;;8.30;99.90;;;;;;5015524;28;20342;-78
2020/12/16 09:44:22;;;;;;;;;;;8.30;99.90;;;;;;5015604;28;20334;-78
2020/12/16 09:46:49;;;;;;;;;;;8.30;99.90;;;;;;5015415;28;19992;-78
2020/12/16 09:49:15;;;;;;;;;;;8.30;99.90;;;;;;5015243;28;19936;-78
2020/12/16 09:51:41;;;;;;;;;;;8.30;99.90;;;;;;5015206;28;19936;-78
2020/12/16 09:54:09;;;;;;;;;;;8.30;99.90;;;;;;5027292;28;20312;-87
2020/12/16 09:56:35;;;;;;;;;;;8.30;99.90;;;;;;5024055;28;19936;-88
2020/12/16 09:59:02;;;;;;;;;;;8.30;99.90;;;;;;5024005;28;19929;-86
2020/12/16 10:01:28;;;;;;;;;;;8.30;99.90;;;;;;5026157;28;19976;-87
2020/12/16 10:03:56;;;;;;;;;;;8.30;99.90;;;;;;5028854;28;19936;-87
2020/12/16 10:06:23;;;;;;;;;;;8.30;99.90;;;;;;5026885;28;19929;-87
2020/12/16 10:08:50;;;;;;;;;;;8.30;99.90;;;;;;5021676;28;19926;-88
2020/12/16 10:11:16;;;;;;;;;;;8.30;99.90;;;;;;5019647;28;20373;-87
2020/12/16 10:13:43;;;;;;;;;;;8.30;99.90;;;;;;5021694;28;19925;-88
2020/12/16 10:16:10;;;;;;;;;;;8.30;99.90;;;;;;5021929;28;19925;-87
2020/12/16 10:18:36;;;;;;;;;;;8.30;99.90;;;;;;5020792;28;19929;-89
2020/12/16 10:21:03;;;;;;;;;;;8.40;99.90;;;;;;5019008;28;19988;-89
2020/12/16 10:23:30;;;;;;;;;;;8.30;99.90;;;;;;5019999;28;19936;-89
2020/12/16 10:25:56;;;;;;;;;;;8.40;99.90;;;;;;5020400;28;19936;-89
2020/12/16 10:28:22;;;;;;;;;;;8.40;99.90;;;;;;5017969;28;20346;-89
2020/12/16 10:30:49;;;;;;;;;;;8.40;99.90;;;;;;5017113;28;19926;-90
2020/12/16 10:33:15;;;;;;;;;;;8.40;99.90;;;;;;5020597;28;19925;-89
2020/12/16 10:35:41;;;;;;;;;;;8.40;99.90;;;;;;5020975;28;19926;-88
2020/12/16 10:38:08;;;;;;;;;;;8.50;99.90;;;;;;5019940;28;19925;-89
2020/12/16 10:40:35;;;;;;;;;;;8.40;99.90;;;;;;5019965;28;20354;-88
2020/12/16 10:43:01;;;;;;;;;;;8.40;99.90;;;;;;5020448;28;19925;-89
2020/12/16 10:45:27;;;;;;;;;;;8.40;99.90;;;;;;5019638;28;20310;-89
2020/12/16 10:47:57;;;;;;;;;;;8.40;99.90;;;;;;5019835;28;20036;-90
2020/12/16 10:50:24;;;;;;;;;;;8.40;99.90;;;;;;5019453;28;19933;-89
2020/12/16 10:52:50;;;;;;;;;;;8.40;99.90;;;;;;5019553;28;19988;-90
2020/12/16 10:55:17;;;;;;;;;;;8.40;99.90;;;;;;5019096;28;19991;-89
2020/12/16 10:57:44;;;;;;;;;;;8.40;99.90;;;;;;5019211;28;19926;-90
2020/12/16 11:00:12;;;;;;;;;;;8.40;99.90;;;;;;5018853;28;19925;-90
2020/12/16 11:02:38;;;;;;;;;;;8.50;99.90;;;;;;5018736;28;20270;-90
2020/12/16 11:05:12;;;;;;;;;;;8.50;99.90;;;;;;5019118;28;20016;-90
2020/12/16 11:07:40;;;;;;;;;;;8.50;99.90;;;;;;5019070;28;19925;-90
2020/12/16 11:10:10;;;;;;;;;;;8.50;99.90;;;;;;5018722;28;19987;-89
2020/12/16 11:12:40;;;;;;;;;;;8.50;99.90;;;;;;5018779;28;19929;-90
2020/12/16 11:15:07;;;;;;;;;;;8.50;99.90;;;;;;5018775;28;19929;-91
2020/12/16 11:17:36;;;;;;;;;;;8.50;99.90;;;;;;5018591;28;19930;-91
2020/12/16 11:20:03;;;;;;;;;;;8.50;99.90;;;;;;5018730;28;19925;-91
2020/12/16 11:22:37;;;;;;;;;;;8.50;99.90;;;;;;5018457;28;19979;-92
2020/12/16 11:25:06;;;;;;;;;;;8.50;99.90;;;;;;5018254;28;19936;-92
2020/12/16 11:27:34;;;;;;;;;;;8.60;99.90;;;;;;5018663;28;20364;-91
2020/12/16 11:30:01;;;;;;;;;;;8.60;99.90;;;;;;5018189;28;20001;-92
2020/12/16 11:32:30;;;;;;;;;;;8.50;99.90;;;;;;5018660;28;20274;-90
2020/12/16 11:35:02;;;;;;;;;;;8.50;99.90;;;;;;5018964;28;19988;-89
2020/12/16 11:37:30;;;;;;;;;;;8.50;99.90;;;;;;5018775;28;19925;-89
2020/12/16 11:39:58;;;;;;;;;;;8.50;99.90;;;;;;5018175;28;19930;-88
2020/12/16 11:42:25;;;;;;;;;;;8.60;99.90;;;;;;5018179;28;19925;-87
2020/12/16 11:44:52;;;;;;;;;;;8.50;99.90;;;;;;5016860;28;19945;-87
2020/12/16 11:47:18;;;;;;;;;;;8.50;99.90;;;;;;5017469;28;20346;-87
2020/12/16 11:49:44;;;;;;;;;;;8.50;99.90;;;;;;5017379;28;19925;-88
2020/12/16 11:52:11;;;;;;;;;;;8.50;99.90;;;;;;5016883;28;19932;-88
2020/12/16 11:54:38;;;;;;;;;;;8.40;99.90;;;;;;5018057;28;19925;-88
2020/12/16 11:57:04;;;;;;;;;;;8.40;99.90;;;;;;5018029;28;20019;-87
2020/12/16 11:59:30;;;;;;;;;;;8.40;99.90;;;;;;5017672;28;19988;-88
2020/12/16 12:01:57;;;;;;;;;;;8.40;99.90;;;;;;5017607;28;19925;-87
2020/12/16 12:04:23;;;;;;;;;;;8.40;99.90;;;;;;5017718;28;19981;-88
2020/12/16 12:06:49;;;;;;;;;;;8.30;99.90;;;;;;5017269;28;19925;-87
2020/12/16 12:09:16;;;;;;;;;;;8.30;99.90;;;;;;5017337;28;20373;-88
2020/12/16 12:11:43;;;;;;;;;;;8.30;99.90;;;;;;5017537;28;20354;-87
2020/12/16 12:14:09;;;;;;;;;;;8.30;99.90;;;;;;5017582;28;20416;-87
2020/12/16 12:16:36;;;;;;;;;;;8.30;99.90;;;;;;5017710;28;19936;-87
2020/12/16 12:19:02;;;;;;;;;;;8.30;99.90;;;;;;5017177;28;19936;-87
2020/12/16 12:21:28;;;;;;;;;;;8.30;99.90;;;;;;5017049;28;20325;-87
2020/12/16 12:23:54;;;;;;;;;;;8.20;99.90;;;;;;5017201;28;19934;-87
2020/12/16 12:26:21;;;;;;;;;;;8.20;99.90;;;;;;5017165;28;19936;-87
2020/12/16 12:28:48;;;;;;;;;;;8.20;99.90;;;;;;5016909;28;19925;-88
2020/12/16 12:31:14;;;;;;;;;;;8.20;99.90;;;;;;5016652;28;19932;-87
2020/12/16 12:33:40;;;;;;;;;;;8.20;99.90;;;;;;5017098;28;19925;-88
2020/12/16 12:36:08;;;;;;;;;;;8.20;99.90;;;;;;5017086;28;19937;-86
2020/12/16 12:38:35;;;;;;;;;;;8.20;99.90;;;;;;5017135;28;20008;-89
2020/12/16 12:41:01;;;;;;;;;;;8.20;99.90;;;;;;5016965;28;19980;-86
2020/12/16 12:43:28;;;;;;;;;;;8.10;99.90;;;;;;5016734;28;19926;-87
2020/12/16 12:45:54;;;;;;;;;;;8.20;99.90;;;;;;5016856;28;19945;-88
2020/12/16 12:48:20;;;;;;;;;;;8.20;99.90;;;;;;5016679;28;19952;-87
2020/12/16 12:50:47;;;;;;;;;;;8.20;99.90;;;;;;5016832;28;19930;-87
2020/12/16 12:53:13;;;;;;;;;;;8.10;99.90;;;;;;5016722;28;19926;-86
2020/12/16 12:55:40;;;;;;;;;;;8.20;99.90;;;;;;5016546;28;19936;-88
2020/12/16 12:58:06;;;;;;;;;;;8.20;99.90;;;;;;5016589;28;20024;-86
2020/12/16 13:00:33;;;;;;;;;;;8.20;99.90;;;;;;5016239;28;19926;-88
2020/12/16 13:03:00;;;;;;;;;;;8.20;99.90;;;;;;5016399;28;19925;-87
2020/12/16 13:05:26;;;;;;;;;;;8.20;99.90;;;;;;5017021;28;19925;-86
2020/12/16 13:07:52;;;;;;;;;;;8.10;99.90;;;;;;5016632;28;19925;-87
2020/12/16 13:10:18;;;;;;;;;;;8.10;99.90;;;;;;5016234;28;20003;-86
2020/12/16 13:12:45;;;;;;;;;;;8.10;99.90;;;;;;5016495;28;19926;-87
2020/12/16 13:15:11;;;;;;;;;;;8.10;99.90;;;;;;5016298;28;19925;-87
2020/12/16 13:17:38;;;;;;;;;;;8.10;99.90;;;;;;5016813;28;19925;-87
2020/12/16 13:20:04;;;;;;;;;;;8.10;99.90;;;;;;5016684;28;19937;-87
2020/12/16 13:22:32;;;;;;;;;;;8.10;99.90;;;;;;5016907;28;19925;-87
2020/12/16 13:25:00;;;;;;;;;;;8.10;99.90;;;;;;5017628;28;19945;-86
2020/12/16 13:27:26;;;;;;;;;;;8.10;99.90;;;;;;5016782;28;19941;-86
2020/12/16 13:29:53;;;;;;;;;;;8.00;99.90;;;;;;5017398;28;19925;-85
2020/12/16 13:32:19;;;;;;;;;;;8.00;99.90;;;;;;5022235;28;19926;-85
2020/12/16 13:34:47;;;;;;;;;;;8.00;99.90;;;;;;5022693;28;19933;-85
2020/12/16 13:37:13;;;;;;;;;;;8.00;99.90;;;;;;5023576;28;19937;-86
2020/12/16 13:39:39;;;;;;;;;;;8.00;99.90;;;;;;5019360;28;19926;-85
2020/12/16 13:42:05;;;;;;;;;;;8.00;99.90;;;;;;5019742;28;19937;-86
2020/12/16 13:44:32;;;;;;;;;;;8.00;99.90;;;;;;5020946;28;19933;-86
2020/12/16 13:46:58;;;;;;;;;;;8.00;99.90;;;;;;5010752;28;19926;-85
2020/12/16 13:49:25;;;;;;;;;;;8.00;99.90;;;;;;5000462;28;19925;-86
2020/12/16 13:51:52;;;;;;;;;;;8.00;99.90;;;;;;5002024;28;19926;-86
2020/12/16 13:54:18;;;;;;;;;;;8.00;99.90;;;;;;5003921;28;20024;-85
2020/12/16 13:56:45;;;;;;;;;;;7.90;99.90;;;;;;5007785;28;19926;-87
2020/12/16 13:59:11;;;;;;;;;;;7.90;99.90;;;;;;5014754;28;20335;-83
2020/12/16 14:01:37;;;;;;;;;;;7.90;99.90;;;;;;5013610;28;19930;-84
2020/12/16 14:04:03;;;;;;;;;;;7.90;99.90;;;;;;5014404;28;19932;-88
2020/12/16 14:06:30;;;;;;;;;;;7.90;99.90;;;;;;5006694;28;19936;-84
2020/12/16 14:08:57;;;;;;;;;;;7.90;99.90;;;;;;5002046;28;19937;-85
2020/12/16 14:11:23;;;;;;;;;;;7.80;99.90;;;;;;5008401;28;19926;-84
2020/12/16 14:13:50;;;;;;;;;;;7.80;99.90;;;;;;5005186;28;20004;-84
2020/12/16 14:16:17;;;;;;;;;;;7.80;99.90;;;;;;5003039;28;19930;-85
2020/12/16 14:18:44;;;;;;;;;;;7.80;99.90;;;;;;5000662;28;19926;-86
2020/12/16 14:21:10;;;;;;;;;;;7.80;99.90;;;;;;4999034;28;19998;-84
2020/12/16 14:23:37;;;;;;;;;;;7.80;99.90;;;;;;5003503;28;20259;-85
2020/12/16 14:26:04;;;;;;;;;;;7.80;99.90;;;;;;4998259;28;19926;-86
2020/12/16 14:28:30;;;;;;;;;;;7.80;99.90;;;;;;4997808;28;19925;-86
2020/12/16 14:30:57;;;;;;;;;;;7.80;99.90;;;;;;5011004;28;19940;-86
2020/12/16 14:33:23;;;;;;;;;;;7.80;99.90;;;;;;5015473;28;19925;-86
2020/12/16 14:35:49;;;;;;;;;;;7.80;99.90;;;;;;5015623;28;19925;-85
2020/12/16 14:38:15;;;;;;;;;;;7.80;99.90;;;;;;5015754;28;19940;-86
2020/12/16 14:40:42;;;;;;;;;;;7.90;99.90;;;;;;5015396;28;19926;-87
2020/12/16 14:43:09;;;;;;;;;;;7.80;99.90;;;;;;5015356;28;19926;-88